LEMG Airport Information

Runway Information
Runway 12 Length 9022 ft width 148 ft
Elevation 52 ft Threshold 0 ft Heading 119
Runway 30 Length 9022 ft Width 148 ft
Elevation 31 ft Threshold 0 ft Heading 299
Runway 13 Length 10500 ft width 148 ft
Elevation 52 ft Threshold 0 ft Heading 133
Runway 31 Length 10500 ft Width 148 ft
Elevation 31 ft Threshold 0 ft Heading 313
Airport Frequencies
Type A/D Name APP Frequency 123.85 MHZ
Type ATIS Name ATIS Frequency 120.375 MHZ
Type CLD Name CLR DEL Frequency 121.875 MHZ
Type GND Name GND-W Frequency 121.7 MHZ
Type GND Name GND-E Frequency 121.95 MHZ
Type TWR Name TWR-W (RWY Frequency 118.15 MHZ
Type TWR Name TWR-E (RWY Frequency 118.775 MHZ
Airport Navaids
Type VOR-DME Name Martin Frequency 112600 KHZ
Type VOR-DME Name Malaga Frequency 112000 KHZ
Type VOR-DME Name Malaga Frequency 113550 KHZ
Type NDB Name Malaga Frequency 330 KHZ
Airport Weather Information & NOTAM
ADDS - METARS form results

(0607 UTC 23 September 2021)
Data provider http://aviationweather.gov/metar/data/
 
METAR text: LEMG 230600Z VRB02KT 9999 FEW020 SCT035 22/20 Q1013 NOSIG
Conditions at: LEMG (MALAGA (CIV/MIL), ES) observed 0600 UTC 23 September 2021
Temperature: 22.0°C (72°F)
Dewpoint: 20.0°C (68°F) [RH = 88%]
Pressure (altimeter): 29.91 inches Hg (1013.0 mb)
Winds: variable direction winds at 2 MPH (2 knots; 1.0 m/s)
Visibility: 6 or more miles (10+ km)
Ceiling: at least 12,000 feet AGL
Clouds: few clouds at 2000 feet AGL
scattered clouds at 3500 feet AGL
Weather: no significant weather observed at this time

METAR text: LEMG 230530Z 16003KT 130V190 9999 SCT020 BKN035 22/20 Q1013 NOSIG
Conditions at: LEMG (MALAGA (CIV/MIL), ES) observed 0530 UTC 23 September 2021
Temperature: 22.0°C (72°F)
Dewpoint: 20.0°C (68°F) [RH = 88%]
Pressure (altimeter): 29.91 inches Hg (1013.0 mb)
Winds: from the SSE (160 degrees) at 3 MPH (3 knots; 1.5 m/s)
Visibility: 6 or more miles (10+ km)
Ceiling: 3500 feet AGL
Clouds: scattered clouds at 2000 feet AGL
broken clouds at 3500 feet AGL
Weather: no significant weather observed at this time

Forecast for: LEMG (MALAGA (CIV/MIL), ES)
Text: TAF LEMG 230500Z 2306/2406 15010KT 9999 FEW025 TX26/2310Z TN21/2306Z
Forecast period: 0600 UTC 23 September 2021 to 0600 UTC 24 September 2021
Forecast type: FROM: standard forecast or significant change
Winds: from the SSE (150 degrees) at 12 MPH (10 knots; 5.1 m/s)
Visibility: 6 or more miles (10+ km)
Ceiling: at least 12,000 feet AGL
Clouds: few clouds at 2500 feet AGL
Weather: no significant weather forecast for this period
Text: PROB40
Forecast period: 0600 to 0800 UTC 23 September 2021
Forecast type: TEMPORARY: The following changes expected for less than half the time period
Visibility: missing
Ceiling: 900 feet AGL
Clouds: broken clouds at 900 feet AGL
Weather: no significant weather forecast for this period